Niota, Tennessee
Current Conditions -  °F | °C
As of 1:55 AM on Sunday 23 Nov 2014 (Local Time) from KMMI Reporting Station
Broken Clouds Broken Clouds  
Wind Chill: 43°   Ceiling: 4500
Heat Index: 43°   Visibility: 10mi
Dew Point: 36°   Wind: 3mph
Humidity: 76%   Direction: NA
Pressure: 30.15"   Gusts: NA
Location:  35.51°N, 84.55°W
Report Text: KMMI 230655Z AUTO VRB03KT 10SM BKN045 06/02 A3015 RMK
Loading
Personal Weather Stations






























Interactive Weather Map New forecast layout! Learn more

10-Day Weather Forecast

Advertisements
Track Severe Weather on mobile